createdAt,value
2024-03-27T00:00:59.596Z,4.80
2024-03-27T00:06:01.630Z,5.50
2024-03-27T00:11:04.215Z,5.30
2024-03-27T00:16:06.183Z,4.80
2024-03-27T00:21:08.013Z,4.80
2024-03-27T00:26:09.650Z,4.20
2024-03-27T00:31:11.405Z,4.20
2024-03-27T00:36:13.170Z,5.10
2024-03-27T00:41:14.976Z,6.10
2024-03-27T00:46:16.716Z,5.70
2024-03-27T00:51:18.765Z,4.60
2024-03-27T00:56:22.265Z,5.00
2024-03-27T01:01:25.010Z,5.00
2024-03-27T01:06:26.799Z,5.80
2024-03-27T01:11:28.447Z,5.90
2024-03-27T01:16:30.653Z,6.30
2024-03-27T01:21:32.428Z,6.20
2024-03-27T01:26:34.184Z,6.40
2024-03-27T01:31:35.926Z,5.80
2024-03-27T01:36:37.579Z,7.00
2024-03-27T01:41:39.246Z,7.30
2024-03-27T01:46:40.956Z,7.30
2024-03-27T01:51:43.378Z,6.10
2024-03-27T01:56:46.629Z,6.50
2024-03-27T02:01:49.335Z,6.40
2024-03-27T02:06:52.848Z,6.30
2024-03-27T02:11:54.880Z,5.80
2024-03-27T02:17:02.608Z,5.90
2024-03-27T02:22:07.794Z,5.40
2024-03-27T02:27:09.572Z,5.60
2024-03-27T02:32:11.243Z,5.50
2024-03-27T02:37:12.913Z,5.40
2024-03-27T02:42:14.624Z,5.50
2024-03-27T02:47:16.339Z,5.20
2024-03-27T02:52:18.186Z,4.90
2024-03-27T02:57:19.911Z,4.20
2024-03-27T03:02:21.594Z,5.60
2024-03-27T03:07:23.206Z,5.30
2024-03-27T03:12:25.316Z,4.80
2024-03-27T03:17:27.106Z,4.80
2024-03-27T03:22:28.852Z,4.80
2024-03-27T03:27:30.478Z,4.90
2024-03-27T03:32:32.132Z,5.00
2024-03-27T03:37:33.776Z,4.80
2024-03-27T03:42:35.695Z,5.20
2024-03-27T03:47:37.339Z,4.50
2024-03-27T03:52:39.047Z,5.00
2024-03-27T03:57:42.108Z,5.00
2024-03-27T04:02:43.731Z,5.20
2024-03-27T04:07:48.562Z,5.10
2024-03-27T04:12:50.276Z,4.40
2024-03-27T04:17:51.954Z,4.90
2024-03-27T04:22:53.671Z,4.80
2024-03-27T04:27:55.884Z,4.10
2024-03-27T04:32:57.552Z,4.50
2024-03-27T04:37:59.581Z,4.60
2024-03-27T04:43:01.277Z,4.60
2024-03-27T04:48:03.153Z,4.10
2024-03-27T04:53:04.999Z,4.30
2024-03-27T04:58:06.619Z,4.20
2024-03-27T05:03:08.274Z,4.00
2024-03-27T05:08:09.942Z,4.30
2024-03-27T05:13:12.365Z,4.90
2024-03-27T05:18:14.015Z,4.20
2024-03-27T05:23:16.237Z,4.60
2024-03-27T05:28:17.899Z,4.30
2024-03-27T05:33:19.706Z,4.70
2024-03-27T05:38:22.191Z,4.00
2024-03-27T05:43:23.854Z,3.60
2024-03-27T05:48:25.751Z,3.70
2024-03-27T05:53:27.479Z,4.40
2024-03-27T05:58:29.315Z,4.70
2024-03-27T06:03:30.989Z,4.40
2024-03-27T06:08:33.364Z,5.60
2024-03-27T06:13:35.661Z,5.80
2024-03-27T06:18:37.407Z,5.30
2024-03-27T06:23:39.085Z,5.20
2024-03-27T06:28:40.958Z,4.20
2024-03-27T06:33:42.609Z,5.20
2024-03-27T06:38:44.307Z,5.20
2024-03-27T06:43:48.524Z,5.00
2024-03-27T06:48:57.779Z,4.10
2024-03-27T06:53:59.492Z,3.40
2024-03-27T06:59:01.343Z,3.30
2024-03-27T07:04:04.300Z,3.60
2024-03-27T07:09:06.165Z,2.80
2024-03-27T07:14:07.888Z,2.70
2024-03-27T07:19:09.622Z,2.70
2024-03-27T07:24:11.305Z,2.40
2024-03-27T07:29:12.937Z,2.40
2024-03-27T07:34:15.701Z,2.50
2024-03-27T07:39:18.435Z,2.30
2024-03-27T07:44:20.420Z,2.20
2024-03-27T07:49:22.122Z,2.30
2024-03-27T07:54:23.862Z,2.30
2024-03-27T07:59:25.516Z,2.80
2024-03-27T08:04:27.263Z,2.70
2024-03-27T08:09:28.983Z,2.70
2024-03-27T08:14:31.109Z,2.50
2024-03-27T08:19:33.597Z,2.60
2024-03-27T08:24:35.971Z,2.60
2024-03-27T08:29:37.678Z,2.40
2024-03-27T08:34:39.574Z,2.70
2024-03-27T08:39:43.290Z,2.60
2024-03-27T08:44:45.044Z,2.50
2024-03-27T08:49:46.648Z,2.30
2024-03-27T08:54:48.380Z,2.70
2024-03-27T08:59:50.054Z,2.20
2024-03-27T09:04:52.300Z,2.30
2024-03-27T09:09:54.143Z,2.90
2024-03-27T09:14:55.795Z,2.40
2024-03-27T09:19:58.042Z,2.20
2024-03-27T09:24:59.893Z,2.30
2024-03-27T09:30:03.549Z,1.90
2024-03-27T09:35:06.405Z,1.90
2024-03-27T09:40:09.459Z,2.00
2024-03-27T09:45:12.321Z,1.90
2024-03-27T09:50:14.786Z,1.90
2024-03-27T09:55:19.579Z,2.20
2024-03-27T10:00:21.288Z,1.60
2024-03-27T10:05:24.932Z,1.90
2024-03-27T10:10:27.236Z,1.80
2024-03-27T10:15:29.227Z,2.20
2024-03-27T10:20:31.926Z,1.40
2024-03-27T10:25:34.129Z,1.30
2024-03-27T10:30:36.096Z,2.00
2024-03-27T10:35:39.058Z,2.00
2024-03-27T10:40:41.248Z,1.40
2024-03-27T10:45:44.848Z,1.50
2024-03-27T10:50:48.039Z,1.10
2024-03-27T10:55:50.943Z,1.30
2024-03-27T11:00:52.941Z,1.50
2024-03-27T11:05:54.854Z,1.50
2024-03-27T11:11:10.688Z,1.30
2024-03-27T11:16:13.592Z,1.60
2024-03-27T11:21:15.992Z,1.50
2024-03-27T11:26:33.346Z,1.60
2024-03-27T11:31:41.201Z,1.40
2024-03-27T11:36:43.583Z,1.10
2024-03-27T11:41:49.711Z,1.40
2024-03-27T11:46:51.600Z,1.10
2024-03-27T11:51:53.385Z,1.70
2024-03-27T11:56:55.396Z,1.30
2024-03-27T12:01:57.158Z,1.30
2024-03-27T12:06:59.181Z,1.30
2024-03-27T12:12:01.784Z,1.50
2024-03-27T12:17:13.374Z,1.70
2024-03-27T12:22:15.173Z,1.50
2024-03-27T12:27:24.497Z,1.80
2024-03-27T12:32:28.514Z,1.30
2024-03-27T12:37:30.344Z,1.30
2024-03-27T12:42:32.242Z,1.70
2024-03-27T12:47:34.007Z,1.60
2024-03-27T13:04:42.220Z,1.60
2024-03-27T13:09:44.414Z,1.70
2024-03-27T13:14:46.175Z,1.80
2024-03-27T13:19:50.066Z,1.80
2024-03-27T13:24:53.777Z,1.50
2024-03-27T13:29:55.592Z,2.20
2024-03-27T13:34:58.510Z,1.70
2024-03-27T13:40:00.320Z,1.20
2024-03-27T13:45:02.122Z,1.00
2024-03-27T13:50:05.648Z,1.40
2024-03-27T13:55:08.213Z,1.70
2024-03-27T14:00:13.046Z,1.10
2024-03-27T14:05:15.183Z,1.20
2024-03-27T14:10:16.974Z,1.10
2024-03-27T14:15:20.700Z,1.10
2024-03-27T14:20:22.672Z,1.20
2024-03-27T14:25:24.564Z,1.10
2024-03-27T14:30:26.514Z,1.00
2024-03-27T14:35:28.792Z,1.00
2024-03-27T14:40:30.565Z,1.20
2024-03-27T14:45:32.450Z,1.50
2024-03-27T14:50:34.486Z,1.70
2024-03-27T14:55:36.267Z,1.70
2024-03-27T15:00:38.056Z,2.00
2024-03-27T15:05:39.810Z,1.40
2024-03-27T15:10:41.668Z,1.50
2024-03-27T15:15:43.455Z,0.80
2024-03-27T15:20:45.884Z,1.10
2024-03-27T15:25:47.764Z,1.00
2024-03-27T15:30:49.488Z,1.30
2024-03-27T15:35:51.431Z,1.40
2024-03-27T15:40:57.457Z,1.10
2024-03-27T15:45:59.212Z,1.20
2024-03-27T15:51:01.038Z,1.90
2024-03-27T15:56:02.650Z,1.40
2024-03-27T16:01:04.541Z,1.60
2024-03-27T16:06:06.420Z,2.10
2024-03-27T16:11:09.203Z,2.00
2024-03-27T16:16:10.950Z,1.80
2024-03-27T16:21:12.751Z,2.10
2024-03-27T16:26:14.515Z,2.20
2024-03-27T16:31:16.301Z,2.20
2024-03-27T16:36:18.115Z,2.20
2024-03-27T16:41:19.982Z,1.70
2024-03-27T16:46:21.818Z,2.20
2024-03-27T16:51:23.671Z,2.20
2024-03-27T16:56:26.975Z,2.20
2024-03-27T17:01:28.840Z,1.70
2024-03-27T17:06:31.141Z,2.10
2024-03-27T17:11:32.923Z,2.10
2024-03-27T17:16:34.657Z,2.20
2024-03-27T17:21:36.700Z,2.70
2024-03-27T17:26:38.633Z,3.40
2024-03-27T17:31:40.388Z,4.40
2024-03-27T17:36:42.150Z,3.80
2024-03-27T17:41:43.818Z,4.00
2024-03-27T17:46:47.839Z,4.40
2024-03-27T17:51:49.680Z,5.20
2024-03-27T17:56:51.467Z,5.00
2024-03-27T18:01:53.214Z,4.40
2024-03-27T18:06:54.968Z,4.00
2024-03-27T18:11:58.593Z,3.80
2024-03-27T18:17:02.881Z,3.70
2024-03-27T18:22:05.077Z,3.70
2024-03-27T18:27:06.968Z,3.90
2024-03-27T18:32:08.914Z,3.40
2024-03-27T18:37:12.531Z,3.30
2024-03-27T18:42:14.244Z,3.70
2024-03-27T18:47:16.823Z,4.20
2024-03-27T18:52:18.628Z,4.70
2024-03-27T18:57:21.987Z,6.00
2024-03-27T19:02:25.151Z,5.60
2024-03-27T19:07:29.015Z,5.40
2024-03-27T19:12:33.064Z,5.60
2024-03-27T19:17:34.917Z,6.10
2024-03-27T19:22:37.099Z,5.70
2024-03-27T19:27:38.840Z,6.20
2024-03-27T19:32:40.670Z,6.00
2024-03-27T19:37:44.768Z,5.10
2024-03-27T19:42:46.508Z,5.00
2024-03-27T19:47:48.319Z,6.00
2024-03-27T19:52:50.155Z,7.10
2024-03-27T19:57:51.949Z,8.00
2024-03-27T20:02:54.061Z,8.70
2024-03-27T20:07:55.906Z,7.50
2024-03-27T20:12:57.748Z,6.00
2024-03-27T20:17:59.546Z,5.50
2024-03-27T20:23:01.595Z,5.40
2024-03-27T20:28:03.515Z,5.10
2024-03-27T20:33:07.009Z,6.30
2024-03-27T20:38:08.772Z,7.70
2024-03-27T20:43:12.288Z,5.90
2024-03-27T20:48:14.060Z,7.50
2024-03-27T20:53:16.506Z,7.70
2024-03-27T20:58:18.263Z,6.40
2024-03-27T21:03:19.981Z,5.80
2024-03-27T21:08:21.809Z,5.50
2024-03-27T21:13:23.829Z,4.90
2024-03-27T21:18:26.495Z,5.40
2024-03-27T21:23:28.483Z,5.40
2024-03-27T21:28:30.223Z,5.70
2024-03-27T21:33:32.106Z,4.90
2024-03-27T21:38:33.799Z,5.50
2024-03-27T21:43:35.557Z,6.30
2024-03-27T21:48:40.370Z,5.90
2024-03-27T21:53:42.847Z,6.00
2024-03-27T21:58:45.254Z,6.10
2024-03-27T22:03:47.133Z,7.20
2024-03-27T22:08:52.697Z,7.20
2024-03-27T22:13:54.558Z,6.90
2024-03-27T22:18:56.748Z,6.90
2024-03-27T22:23:58.489Z,7.30
2024-03-27T22:29:00.293Z,7.80
2024-03-27T22:34:02.128Z,8.30
2024-03-27T22:39:04.235Z,7.00
2024-03-27T22:44:06.061Z,8.30
2024-03-27T22:49:08.184Z,7.90
2024-03-27T22:54:09.943Z,8.30
2024-03-27T22:59:11.789Z,7.40
2024-03-27T23:04:15.791Z,7.30
2024-03-27T23:09:17.512Z,7.90
2024-03-27T23:14:19.243Z,7.00
2024-03-27T23:19:21.003Z,7.30
2024-03-27T23:24:22.750Z,6.90
2024-03-27T23:29:24.491Z,7.70
2024-03-27T23:34:26.299Z,7.70
2024-03-27T23:39:31.309Z,7.60
2024-03-27T23:44:33.125Z,6.80
2024-03-27T23:49:35.014Z,6.40
2024-03-27T23:54:36.796Z,6.60
2024-03-27T23:59:38.881Z,6.40
